Portada
METAR-TAF:

METAR-TAF

Aeroports :

Alor Setar, Malàisia

latitud: 06-11-40N, longitud: 100-24-03E, altitud: 5 m

Observació

L'informe es va fer fa 34 minuts, a les 14:00 UTC
Vent 3 kt del Nord, variant entre Nord-Oest i Est
Temperatura 27°C
Humitat 84%
Pressió 1010 hPa
Visibilitat 10 km o més
Escasses núvols a una alçada de 3000 ft

METAR: WMKA 261400Z 35003KT 310V080 9999 FEW030 27/24 Q1010

Hora: 22:34 (14:34 UTC)

Pronòstic

L'informe es va fer fa 3 hores i 34 minuts, a les 11:00 UTC
Pronòstic vàlid del 26 a les 12 UTC al 27 a les 12 UTC
Vent 8 kt del Nord/Nord-Est
Visibilitat 10 km o més
Escasses núvols a una alçada de 3000 ft
Evolucionant progressivament
l' 26 a les 15 UTC al 26 a les 17 UTC
Vent 3 kt amb direcció variable
Evolucionant progressivament
l' 27 a les 01 UTC al 27 a les 03 UTC
Vent 7 kt del Nord-Est
Escasses núvols a una alçada de 2000 ft

TAF: WMKA 261100Z 2612/2712 03008KT 9999 FEW030 BECMG 2615/2617 VRB03KT BECMG 2701/2703 05007KT FEW020

Observacions i pronòstics meteorològics de més de 4000 aeroports (METAR i TAF).

Les estacions disponibles són els punts grocs i vermells al mapa.

Posi el ratolí al punt desitjat per veure el nom de l'estació.

Feu clic per veure les observacions i els pronòstics meteorològics.

Per canviar el mapa: feu clic els botons verds amb una creu de color negre per apropar; al botó verd amb un guió per allunyar la imatge; o en les fletxes verdes per a mapes adjacents.


METAR-TAF: